Sunday, December 17, 2017, 4:33 PM EST
Back to Local

KVTA, Newark Heath Airport

Location: Heath, OH, United States Lat: 40.017
Local Time: 4:33 PM EST (21:33 GMT) Lon: -82.467
Time Zone: US/Eastern Elev: 882 ft

Show me the last for .
Show Decoded

2017-12-17 15:54 METAR KVTA 172054Z AUTO 00000KT 10SM OVC070 04/01 A3011 RMK AO2 SLP206 60000
                 T00440006 56000 =
2017-12-17 14:54 METAR KVTA 171954Z AUTO 24003KT 10SM FEW060 BKN090 OVC110 04/01 A3013 RMK AO2
                 RAE39 SLP211 P0000 T00390006 =
2017-12-17 13:54 METAR KVTA 171854Z AUTO 17004KT 10SM -RA OVC070 04/01 A3010 RMK AO2 SLP200 P0000
                 T00440006 =
2017-12-17 12:54 METAR KVTA 171754Z AUTO 15003KT 10SM -RA BKN080 OVC095 04/00 A3011 RMK AO2 RAB44
                 SLP206 P0000 60000 T00440000 10044 21028 56025 =
2017-12-17 11:54 METAR KVTA 171654Z AUTO 00000KT 10SM BKN110 04/00 A3014 RMK AO2 SLP214 T00390000
                 =
2017-12-17 10:54 METAR KVTA 171554Z AUTO 00000KT 10SM CLR 02/M01 A3017 RMK AO2 SLP223 T00221006 =
2017-12-17 09:54 METAR KVTA 171454Z AUTO 00000KT 8SM CLR 01/M02 A3019 RMK AO2 SLP233 T00061017
                 50007 =
2017-12-17 08:54 METAR KVTA 171354Z AUTO 00000KT 6SM BR CLR M02/M03 A3021 RMK AO2 SLP239
                 T10171028 =
2017-12-17 07:54 METAR KVTA 171254Z AUTO 00000KT 9SM CLR M03/M04 A3017 RMK AO2 SLP228 T10281039 =
2017-12-17 06:54 METAR KVTA 171154Z AUTO 00000KT 8SM CLR M03/M04 A3017 RMK AO2 SLP226 T10281039
                 11028 21050 50003 =
2017-12-17 05:54 METAR KVTA 171054Z AUTO 00000KT 9SM CLR M03/M05 A3018 RMK AO2 SLP227 T10331050 =
2017-12-17 04:54 METAR KVTA 170954Z AUTO 00000KT 9SM CLR M04/M06 A3017 RMK AO2 SLP222 T10391056 =
2017-12-17 03:54 METAR KVTA 170854Z AUTO 00000KT 9SM CLR M04/M06 A3016 RMK AO2 SLP220 T10391056
                 58001 =
2017-12-17 02:54 METAR KVTA 170754Z AUTO 00000KT 10SM CLR M03/M06 A3017 RMK AO2 SLP223 T10331056
                 =
2017-12-17 01:54 METAR KVTA 170654Z AUTO 19003KT 10SM CLR M03/M05 A3017 RMK AO2 SLP224 T10331050
                 =
2017-12-17 00:54 METAR KVTA 170554Z AUTO 00000KT 10SM CLR M04/M05 A3016 RMK AO2 SLP221 T10391050
                 10017 21039 51011 =
2017-12-16 23:54 METAR KVTA 170454Z AUTO 00000KT 10SM CLR M03/M05 A3016 RMK AO2 SLP221 T10331050
                 400831033 =
2017-12-16 22:54 METAR KVTA 170354Z AUTO 00000KT 10SM CLR M03/M05 A3015 RMK AO2 SLP219 T10281050
                 =
2017-12-16 21:54 METAR KVTA 170254Z AUTO 00000KT 10SM CLR M03/M05 A3013 RMK AO2 SLP211 T10281050
                 52018 =
2017-12-16 20:54 METAR KVTA 170154Z AUTO 00000KT 10SM CLR M03/M04 A3011 RMK AO2 SLP205 T10281044
                 =
2017-12-16 19:54 METAR KVTA 170054Z AUTO 00000KT 10SM CLR M01/M04 A3010 RMK AO2 SLP200 T10111039
                 =
2017-12-16 18:54 METAR KVTA 162354Z AUTO 00000KT 10SM CLR 02/M04 A3008 RMK AO2 SLP193 T00171039
                 10083 20011 53020 =
2017-12-16 17:54 METAR KVTA 162254Z AUTO 20005KT 10SM CLR 05/M03 A3005 RMK AO2 SLP182 T00501028 =
2017-12-16 16:54 METAR KVTA 162154Z AUTO 22006KT 10SM CLR 07/M03 A3003 RMK AO2 SLP175 T00671028 =

Support USWX by starting your Amazon purchase here.